Time;durP1;ratioP1;P1;durP2;ratioP2;P2;SDS_P1;SDS_P2;PMS_P1;PMS_P2;Temp;Humidity;BMP_temperature;BMP_pressure;BME280_temperature;BME280_humidity;BME280_pressure;Samples;Min_cycle;Max_cycle;Signal;HPM_P1;HPM_P2
2021/08/19 00:01:34;;;;;;;18.27;9.20;;;16.10;99.90;;;;;;4915802;29;20118;-57
2021/08/19 00:04:00;;;;;;;21.05;12.38;;;16.10;99.90;;;;;;4921572;29;20535;-58
2021/08/19 00:06:25;;;;;;;17.50;11.10;;;16.00;99.90;;;;;;4905429;29;20075;-59
2021/08/19 00:08:51;;;;;;;16.88;11.02;;;16.00;99.90;;;;;;4912658;29;20052;-58
2021/08/19 00:11:17;;;;;;;15.63;10.45;;;16.00;99.90;;;;;;4915679;29;20055;-57
2021/08/19 00:13:43;;;;;;;19.77;11.23;;;16.00;99.90;;;;;;4914765;29;20030;-60
2021/08/19 00:16:09;;;;;;;15.38;11.55;;;16.00;99.90;;;;;;4913632;29;20032;-57
2021/08/19 00:18:35;;;;;;;14.77;10.50;;;15.90;99.90;;;;;;4918321;29;20020;-57
2021/08/19 00:21:01;;;;;;;15.52;11.02;;;15.90;99.90;;;;;;4919729;29;20024;-57
2021/08/19 00:23:27;;;;;;;13.15;9.13;;;15.90;99.90;;;;;;4917960;29;20052;-59
2021/08/19 00:25:52;;;;;;;15.15;8.93;;;15.90;99.90;;;;;;4927458;29;20042;-57
2021/08/19 00:28:18;;;;;;;13.48;8.95;;;15.90;99.90;;;;;;4914751;29;20040;-56
2021/08/19 00:30:44;;;;;;;14.18;9.48;;;15.90;99.90;;;;;;4914506;29;20095;-59
2021/08/19 00:33:10;;;;;;;13.65;8.32;;;15.90;99.90;;;;;;4911386;29;20036;-59
2021/08/19 00:35:36;;;;;;;12.10;8.77;;;15.90;99.90;;;;;;4913118;29;20032;-59
2021/08/19 00:38:02;;;;;;;14.05;9.00;;;15.90;99.90;;;;;;4909916;29;20545;-60
2021/08/19 00:40:28;;;;;;;14.63;8.68;;;15.90;99.90;;;;;;4907340;29;20062;-55
2021/08/19 00:42:54;;;;;;;14.48;8.77;;;15.90;99.90;;;;;;4906882;29;20024;-59
2021/08/19 00:45:21;;;;;;;12.05;8.85;;;15.90;99.90;;;;;;4904800;29;20032;-60
2021/08/19 00:47:47;;;;;;;10.02;8.50;;;15.90;99.90;;;;;;4934414;29;20582;-60
2021/08/19 00:50:13;;;;;;;14.73;9.50;;;15.90;99.90;;;;;;4928549;29;20031;-60
2021/08/19 00:52:41;;;;;;;15.95;9.48;;;15.90;99.90;;;;;;4918515;29;20063;-56
2021/08/19 00:55:08;;;;;;;18.75;9.27;;;15.90;99.90;;;;;;4920083;29;20025;-60
2021/08/19 00:57:37;;;;;;;10.77;8.63;;;15.90;99.90;;;;;;4925327;29;20126;-60
2021/08/19 01:00:03;;;;;;;11.52;8.25;;;15.90;99.90;;;;;;4921633;29;20277;-59
2021/08/19 01:02:28;;;;;;;11.25;8.07;;;15.90;99.90;;;;;;4924976;29;20510;-54
2021/08/19 01:04:54;;;;;;;12.07;9.07;;;15.90;99.90;;;;;;4919168;29;20044;-60
2021/08/19 01:07:20;;;;;;;12.00;9.07;;;15.90;99.90;;;;;;4924899;29;20027;-59
2021/08/19 01:09:45;;;;;;;12.35;8.35;;;15.90;99.90;;;;;;4924335;29;20027;-59
2021/08/19 01:12:13;;;;;;;13.82;9.00;;;15.90;99.90;;;;;;4921123;29;20035;-60
2021/08/19 01:14:40;;;;;;;12.65;8.88;;;15.90;99.90;;;;;;4915478;29;20036;-58
2021/08/19 01:17:11;;;;;;;15.10;9.70;;;15.90;99.90;;;;;;4925276;29;20023;-59
2021/08/19 01:19:38;;;;;;;14.90;8.63;;;15.90;99.90;;;;;;4922836;29;20056;-60
2021/08/19 01:22:04;;;;;;;16.40;8.45;;;15.90;99.90;;;;;;4924387;29;20507;-58
2021/08/19 01:24:30;;;;;;;14.20;8.65;;;15.90;99.90;;;;;;4928560;29;20064;-53
2021/08/19 01:26:56;;;;;;;13.02;9.00;;;16.00;99.90;;;;;;4918337;29;20032;-59
2021/08/19 01:29:21;;;;;;;12.82;8.27;;;16.00;99.90;;;;;;4913419;29;20495;-60
2021/08/19 01:31:57;;;;;;;16.27;9.05;;;16.00;99.90;;;;;;4913827;29;20040;-60
2021/08/19 01:34:23;;;;;;;17.08;8.23;;;16.00;99.90;;;;;;4919788;29;20032;-58
2021/08/19 01:36:49;;;;;;;14.80;9.00;;;16.00;99.90;;;;;;4927154;29;20491;-59
2021/08/19 01:39:15;;;;;;;13.32;9.55;;;16.00;99.90;;;;;;4918145;29;20133;-58
2021/08/19 01:41:41;;;;;;;16.63;9.50;;;16.00;99.90;;;;;;4928145;29;20542;-60
2021/08/19 01:44:06;;;;;;;14.15;8.68;;;16.00;99.90;;;;;;4908911;29;20071;-56
2021/08/19 01:46:32;;;;;;;13.52;8.73;;;16.00;99.90;;;;;;4907129;29;20035;-51
2021/08/19 01:48:57;;;;;;;13.32;9.15;;;16.00;99.90;;;;;;4913873;29;20031;-55
2021/08/19 01:51:23;;;;;;;14.48;9.30;;;16.10;99.90;;;;;;4909795;29;20083;-58
2021/08/19 01:53:52;;;;;;;12.70;9.27;;;16.10;99.90;;;;;;4918170;29;20019;-58
2021/08/19 01:56:19;;;;;;;13.73;9.93;;;16.10;99.90;;;;;;4919710;29;20396;-59
2021/08/19 01:58:45;;;;;;;11.05;8.70;;;16.10;99.90;;;;;;4921867;29;20032;-58
2021/08/19 02:01:16;;;;;;;12.73;8.65;;;16.10;99.90;;;;;;4913740;29;20444;-57
2021/08/19 02:03:42;;;;;;;15.70;9.77;;;16.10;99.90;;;;;;4912022;29;20058;-57
2021/08/19 02:06:07;;;;;;;13.00;9.52;;;16.00;99.90;;;;;;4909713;29;20055;-56
2021/08/19 02:08:33;;;;;;;18.02;10.50;;;16.10;99.90;;;;;;4909468;29;20091;-57
2021/08/19 02:10:58;;;;;;;15.00;9.43;;;16.10;99.90;;;;;;4910048;29;20046;-61
2021/08/19 02:13:24;;;;;;;14.13;9.27;;;16.10;99.90;;;;;;4913588;29;20043;-58
2021/08/19 02:15:49;;;;;;;16.88;9.05;;;16.00;99.90;;;;;;4911994;29;20032;-57
2021/08/19 02:18:15;;;;;;;13.18;10.02;;;16.00;99.90;;;;;;4910581;29;20093;-59
2021/08/19 02:20:40;;;;;;;13.20;10.65;;;16.00;99.90;;;;;;4912081;29;20103;-59
2021/08/19 02:23:06;;;;;;;13.38;9.85;;;16.00;99.90;;;;;;4913368;29;20068;-57
2021/08/19 02:25:31;;;;;;;15.25;9.50;;;16.00;99.90;;;;;;4916196;29;20035;-58
2021/08/19 02:27:57;;;;;;;15.90;11.52;;;16.00;99.90;;;;;;4911934;29;20028;-59
2021/08/19 02:30:23;;;;;;;16.75;11.18;;;16.00;99.90;;;;;;4909642;29;20495;-59
2021/08/19 02:32:58;;;;;;;17.23;10.48;;;16.00;99.90;;;;;;4911506;29;20788;-58
2021/08/19 02:35:27;;;;;;;15.88;9.10;;;16.00;99.90;;;;;;4912538;29;20051;-58
2021/08/19 02:37:54;;;;;;;16.67;10.20;;;16.00;99.90;;;;;;4912375;29;20048;-57
2021/08/19 02:40:21;;;;;;;17.42;9.35;;;16.00;99.90;;;;;;4914966;29;20032;-60
2021/08/19 02:42:47;;;;;;;19.10;10.65;;;16.00;99.90;;;;;;4914658;29;20035;-58
2021/08/19 02:45:13;;;;;;;16.80;11.18;;;16.00;99.90;;;;;;4910507;29;20044;-55
2021/08/19 02:47:39;;;;;;;16.08;10.98;;;16.10;99.90;;;;;;4909198;29;20040;-56
2021/08/19 02:50:04;;;;;;;25.65;12.35;;;16.10;99.90;;;;;;4917783;29;20074;-59
2021/08/19 02:52:30;;;;;;;19.63;13.20;;;16.10;99.90;;;;;;4916843;29;20123;-53
2021/08/19 02:54:55;;;;;;;22.98;14.52;;;16.10;99.90;;;;;;4912159;29;20103;-58
2021/08/19 02:57:21;;;;;;;24.00;13.45;;;16.10;99.90;;;;;;4912958;29;20546;-60
2021/08/19 02:59:47;;;;;;;19.35;13.90;;;16.10;99.90;;;;;;4911145;29;20551;-62
2021/08/19 03:02:12;;;;;;;20.13;13.90;;;16.10;99.90;;;;;;4915190;29;20692;-59
2021/08/19 03:04:38;;;;;;;17.85;13.27;;;16.10;99.90;;;;;;4913917;29;20031;-58
2021/08/19 03:07:03;;;;;;;21.17;13.73;;;16.10;99.90;;;;;;4908535;29;20036;-58
2021/08/19 03:09:29;;;;;;;20.90;13.65;;;16.20;99.90;;;;;;4914562;29;20088;-60
2021/08/19 03:11:54;;;;;;;20.75;13.88;;;16.10;99.90;;;;;;4910462;29;20122;-59
2021/08/19 03:14:20;;;;;;;22.52;13.45;;;16.20;99.90;;;;;;4914053;29;20065;-58
2021/08/19 03:16:45;;;;;;;24.02;13.60;;;16.20;99.90;;;;;;4910424;29;20451;-59
2021/08/19 03:19:11;;;;;;;17.52;12.90;;;16.20;99.90;;;;;;4911472;29;20032;-57
2021/08/19 03:21:37;;;;;;;29.48;14.68;;;16.10;99.90;;;;;;4908515;29;20141;-57
2021/08/19 03:24:04;;;;;;;20.20;14.00;;;16.10;99.90;;;;;;4916015;29;20052;-57
2021/08/19 03:26:31;;;;;;;20.75;14.63;;;16.10;99.90;;;;;;4913570;29;20041;-55
2021/08/19 03:28:58;;;;;;;19.42;14.38;;;16.10;99.90;;;;;;4912965;29;20381;-58
2021/08/19 03:31:25;;;;;;;20.35;14.43;;;16.10;99.90;;;;;;4912469;29;20119;-60
2021/08/19 03:33:51;;;;;;;21.25;13.98;;;16.10;99.90;;;;;;4912871;29;20536;-60
2021/08/19 03:36:16;;;;;;;20.50;13.75;;;16.10;99.90;;;;;;4916996;29;20111;-58
2021/08/19 03:38:43;;;;;;;15.82;11.65;;;16.20;99.90;;;;;;4914159;29;20028;-54
2021/08/19 03:41:09;;;;;;;22.40;13.85;;;16.20;99.90;;;;;;4916048;29;20028;-58
2021/08/19 03:43:36;;;;;;;24.10;13.23;;;16.10;99.90;;;;;;4914865;29;20024;-55
2021/08/19 03:46:02;;;;;;;17.35;12.52;;;16.20;99.90;;;;;;4905616;29;20476;-59
2021/08/19 03:48:27;;;;;;;23.77;13.82;;;16.20;99.90;;;;;;4915925;29;20040;-57
2021/08/19 03:50:53;;;;;;;22.83;14.25;;;16.20;99.90;;;;;;4927886;29;20046;-60
2021/08/19 03:53:18;;;;;;;19.20;12.63;;;16.10;99.90;;;;;;4924180;29;20032;-58
2021/08/19 03:55:45;;;;;;;22.08;14.38;;;16.10;99.90;;;;;;4914052;29;20032;-58
2021/08/19 03:58:10;;;;;;;18.30;14.57;;;16.20;99.90;;;;;;4912019;29;20046;-56
2021/08/19 04:00:36;;;;;;;22.17;14.30;;;16.10;99.90;;;;;;4914035;29;20515;-56
2021/08/19 04:03:01;;;;;;;24.92;15.18;;;16.10;99.90;;;;;;4916328;29;20036;-59
2021/08/19 04:05:27;;;;;;;24.88;14.20;;;16.20;99.90;;;;;;4918803;29;20031;-58
2021/08/19 04:07:52;;;;;;;19.10;14.10;;;16.20;99.90;;;;;;4918391;29;20088;-59
2021/08/19 04:10:18;;;;;;;20.90;13.18;;;16.20;99.90;;;;;;4915314;29;20553;-60
2021/08/19 04:12:44;;;;;;;19.60;14.45;;;16.20;99.90;;;;;;4918143;29;20032;-58
2021/08/19 04:15:11;;;;;;;19.73;12.43;;;16.10;99.90;;;;;;4913778;29;20024;-58
2021/08/19 04:17:37;;;;;;;22.13;15.30;;;16.20;99.90;;;;;;4921330;29;20031;-59
2021/08/19 04:20:04;;;;;;;20.25;13.43;;;16.10;99.90;;;;;;4915596;29;20028;-59
2021/08/19 04:22:30;;;;;;;22.73;14.07;;;16.20;99.90;;;;;;4915304;29;20021;-61
2021/08/19 04:24:55;;;;;;;25.00;16.50;;;16.10;99.90;;;;;;4916434;29;20116;-58
2021/08/19 04:27:21;;;;;;;20.50;14.73;;;16.10;99.90;;;;;;4914467;29;20040;-58
2021/08/19 04:29:46;;;;;;;22.58;15.50;;;16.10;99.90;;;;;;4915382;29;20040;-59
2021/08/19 04:32:12;;;;;;;23.02;16.00;;;16.10;99.90;;;;;;4913387;29;20063;-60
2021/08/19 04:34:38;;;;;;;26.90;17.00;;;16.10;99.90;;;;;;4915430;29;20111;-60
2021/08/19 04:37:03;;;;;;;20.05;14.80;;;16.00;99.90;;;;;;4914803;29;20444;-61
2021/08/19 04:39:29;;;;;;;28.38;16.85;;;16.10;99.90;;;;;;4909880;29;20047;-57
2021/08/19 04:41:54;;;;;;;26.13;16.42;;;16.00;99.90;;;;;;4919164;29;20076;-61
2021/08/19 04:44:20;;;;;;;26.73;16.73;;;16.00;99.90;;;;;;4915363;29;20040;-59
2021/08/19 04:46:45;;;;;;;25.30;16.02;;;16.00;99.90;;;;;;4908950;29;20040;-59
2021/08/19 04:49:11;;;;;;;29.20;15.48;;;16.00;99.90;;;;;;4916442;29;20032;-60
2021/08/19 04:51:37;;;;;;;26.08;16.17;;;16.00;99.90;;;;;;4916792;29;20028;-59
2021/08/19 04:54:04;;;;;;;32.05;17.10;;;16.00;99.90;;;;;;4916639;29;20239;-59
2021/08/19 04:56:36;;;;;;;26.50;16.15;;;16.00;99.90;;;;;;4913594;29;20510;-60
2021/08/19 04:59:02;;;;;;;28.67;16.52;;;16.00;99.90;;;;;;4914025;29;20028;-59
2021/08/19 05:01:28;;;;;;;24.95;15.95;;;16.00;99.90;;;;;;4911617;29;20484;-61
2021/08/19 05:03:54;;;;;;;25.02;16.02;;;16.00;99.90;;;;;;4913407;29;20017;-60
2021/08/19 05:06:20;;;;;;;24.48;15.15;;;16.00;99.90;;;;;;4915250;29;20040;-60
2021/08/19 05:08:46;;;;;;;22.67;14.48;;;16.00;99.90;;;;;;4917131;29;20127;-60
2021/08/19 05:11:13;;;;;;;24.33;14.75;;;16.00;99.90;;;;;;4888933;29;20526;-58
2021/08/19 05:13:39;;;;;;;23.85;13.50;;;16.00;99.90;;;;;;4894873;29;20116;-59
2021/08/19 05:16:05;;;;;;;21.95;14.80;;;16.00;99.90;;;;;;4892451;29;20076;-57
2021/08/19 05:18:30;;;;;;;19.13;13.07;;;16.00;99.90;;;;;;4896657;29;20036;-58
2021/08/19 05:20:56;;;;;;;24.30;14.30;;;16.10;99.90;;;;;;4899334;29;20040;-60
2021/08/19 05:23:21;;;;;;;18.23;13.80;;;16.10;99.90;;;;;;4895581;29;20036;-58
2021/08/19 05:25:47;;;;;;;23.35;14.25;;;16.10;99.90;;;;;;4894023;29;20024;-59
2021/08/19 05:28:12;;;;;;;24.17;13.98;;;16.10;99.90;;;;;;4894445;29;20487;-60
2021/08/19 05:30:38;;;;;;;19.27;12.82;;;16.20;99.90;;;;;;4896011;29;20116;-60
2021/08/19 05:33:03;;;;;;;24.58;12.85;;;16.10;99.90;;;;;;4891058;29;20083;-56
2021/08/19 05:35:29;;;;;;;19.08;12.32;;;16.20;99.90;;;;;;4890050;29;20040;-61
2021/08/19 05:37:54;;;;;;;23.67;12.93;;;16.10;99.90;;;;;;4891914;29;20508;-60
2021/08/19 05:40:20;;;;;;;20.63;13.05;;;16.20;99.90;;;;;;4894490;29;20100;-62
2021/08/19 05:42:46;;;;;;;21.90;12.82;;;16.10;99.90;;;;;;4896422;29;20036;-59
2021/08/19 05:45:11;;;;;;;21.60;12.52;;;16.10;99.90;;;;;;4909590;29;20035;-58
2021/08/19 05:47:37;;;;;;;23.00;12.77;;;16.10;99.90;;;;;;4893418;29;20515;-58
2021/08/19 05:50:09;;;;;;;27.52;13.30;;;16.10;99.90;;;;;;4892943;29;21034;-57
2021/08/19 05:52:35;;;;;;;22.10;12.90;;;16.20;99.90;;;;;;4894526;29;20131;-53
2021/08/19 05:55:01;;;;;;;22.77;14.43;;;16.20;99.90;;;;;;4898783;29;20120;-57
2021/08/19 05:57:26;;;;;;;21.90;13.70;;;16.20;99.90;;;;;;4892972;29;20092;-56
2021/08/19 05:59:52;;;;;;;25.85;14.43;;;16.20;99.90;;;;;;4892347;29;20036;-60
2021/08/19 06:02:18;;;;;;;24.27;15.07;;;16.20;99.90;;;;;;4891188;29;20024;-58
2021/08/19 06:04:43;;;;;;;21.10;14.65;;;16.30;99.90;;;;;;4893493;29;20032;-59
2021/08/19 06:07:09;;;;;;;22.42;15.07;;;16.30;99.90;;;;;;4891119;29;20061;-57
2021/08/19 06:09:35;;;;;;;24.35;14.88;;;16.30;99.90;;;;;;4888917;29;20042;-59
2021/08/19 06:12:01;;;;;;;24.95;14.65;;;16.40;99.90;;;;;;4878224;29;20176;-59
2021/08/19 06:14:26;;;;;;;25.05;14.50;;;16.40;99.90;;;;;;4905545;29;20025;-59
2021/08/19 06:16:52;;;;;;;28.15;13.95;;;16.50;99.90;;;;;;4912651;29;20036;-56
2021/08/19 06:19:17;;;;;;;23.58;14.15;;;16.50;99.90;;;;;;4914156;29;20027;-58
2021/08/19 06:21:43;;;;;;;22.05;13.65;;;16.50;99.90;;;;;;4914228;29;20035;-58
2021/08/19 06:24:08;;;;;;;21.10;13.93;;;16.60;99.90;;;;;;4926456;29;20035;-58
2021/08/19 06:26:34;;;;;;;21.95;14.70;;;16.60;99.90;;;;;;4910961;29;20040;-51
2021/08/19 06:28:59;;;;;;;26.73;14.27;;;16.60;99.90;;;;;;4910196;29;20050;-59
2021/08/19 06:31:25;;;;;;;19.73;13.63;;;16.60;99.90;;;;;;4911642;29;20043;-59
2021/08/19 06:33:50;;;;;;;18.33;13.35;;;16.70;99.90;;;;;;4911588;29;20028;-59
2021/08/19 06:36:16;;;;;;;23.67;14.35;;;16.70;99.90;;;;;;4915252;29;20408;-57
2021/08/19 06:38:42;;;;;;;19.63;12.95;;;16.70;99.90;;;;;;4910731;29;20059;-59
2021/08/19 06:41:08;;;;;;;21.05;13.73;;;16.70;99.90;;;;;;4909172;29;20024;-59
2021/08/19 06:43:33;;;;;;;18.48;13.00;;;16.70;99.90;;;;;;4910078;29;20070;-60
2021/08/19 06:45:59;;;;;;;19.48;12.27;;;16.70;99.90;;;;;;4910564;29;20064;-59
2021/08/19 06:48:25;;;;;;;20.27;13.93;;;16.80;99.90;;;;;;4916345;29;20090;-58
2021/08/19 06:50:50;;;;;;;21.60;13.20;;;16.80;99.90;;;;;;4912242;29;20039;-60
2021/08/19 06:53:16;;;;;;;22.65;12.48;;;16.80;99.90;;;;;;4910865;29;20036;-59
2021/08/19 06:55:41;;;;;;;22.25;14.05;;;16.70;99.90;;;;;;4913216;29;20491;-58
2021/08/19 06:58:07;;;;;;;17.60;12.30;;;16.70;99.90;;;;;;4916973;29;20036;-58
2021/08/19 07:00:33;;;;;;;26.77;12.55;;;16.80;99.90;;;;;;4911582;29;20027;-56
2021/08/19 07:02:59;;;;;;;20.30;12.10;;;16.80;99.90;;;;;;4913338;29;20028;-57
2021/08/19 07:05:25;;;;;;;21.73;12.95;;;16.80;99.90;;;;;;4918828;29;21797;-59
2021/08/19 07:07:54;;;;;;;17.33;10.85;;;16.80;99.90;;;;;;4920905;29;20511;-61
2021/08/19 07:10:20;;;;;;;17.70;12.07;;;16.80;99.90;;;;;;4915613;29;20488;-58
2021/08/19 07:12:46;;;;;;;22.75;10.75;;;16.80;99.90;;;;;;4903967;29;20055;-54
2021/08/19 07:15:12;;;;;;;15.82;10.95;;;16.80;99.90;;;;;;4914953;29;20123;-59
2021/08/19 07:17:37;;;;;;;18.38;11.77;;;16.80;99.90;;;;;;4921505;29;20587;-59
2021/08/19 07:20:03;;;;;;;20.75;11.73;;;16.80;99.90;;;;;;4922387;29;20036;-59
2021/08/19 07:22:29;;;;;;;17.80;11.05;;;16.80;99.90;;;;;;4916897;29;20503;-61
2021/08/19 07:24:55;;;;;;;20.85;12.05;;;16.90;99.90;;;;;;4917197;29;20028;-61
2021/08/19 07:27:21;;;;;;;21.45;10.90;;;16.80;99.90;;;;;;4923606;29;20028;-62
2021/08/19 07:29:46;;;;;;;21.83;12.13;;;16.80;99.90;;;;;;4919931;29;20503;-52
2021/08/19 07:32:12;;;;;;;13.63;10.73;;;16.80;99.90;;;;;;4913157;29;20042;-59
2021/08/19 07:34:37;;;;;;;17.42;10.27;;;16.80;99.90;;;;;;4915403;29;20034;-54
2021/08/19 07:37:03;;;;;;;17.65;10.65;;;16.80;99.90;;;;;;4919321;29;20043;-60
2021/08/19 07:39:29;;;;;;;15.07;10.27;;;16.80;99.90;;;;;;4919017;29;20032;-58
2021/08/19 07:41:55;;;;;;;17.73;10.77;;;16.80;99.90;;;;;;4925789;29;20024;-59
2021/08/19 07:44:20;;;;;;;17.45;10.85;;;16.90;99.90;;;;;;4917378;29;20040;-60
2021/08/19 07:46:46;;;;;;;24.92;12.40;;;16.80;99.90;;;;;;4915274;29;20040;-60
2021/08/19 07:49:13;;;;;;;22.23;12.73;;;16.80;99.90;;;;;;4918215;29;20131;-61
2021/08/19 07:51:39;;;;;;;13.25;10.27;;;16.80;99.90;;;;;;4915742;29;20032;-61
2021/08/19 07:54:05;;;;;;;15.77;12.00;;;16.90;99.90;;;;;;4915209;29;20032;-60
2021/08/19 07:56:30;;;;;;;17.48;11.77;;;16.90;99.90;;;;;;4915564;29;20133;-60
2021/08/19 07:58:58;;;;;;;14.43;11.63;;;16.90;99.90;;;;;;4912896;29;20032;-60
2021/08/19 08:01:24;;;;;;;20.02;12.60;;;16.90;99.90;;;;;;4915558;29;20092;-59
2021/08/19 08:03:49;;;;;;;16.90;11.65;;;17.00;99.90;;;;;;4914971;29;20032;-58
2021/08/19 08:06:15;;;;;;;16.10;11.77;;;17.00;99.90;;;;;;4914901;29;20040;-57
2021/08/19 08:08:40;;;;;;;17.33;11.40;;;17.00;99.90;;;;;;4912309;29;20028;-60
2021/08/19 08:11:06;;;;;;;16.13;11.25;;;17.10;99.90;;;;;;4899813;28;20024;-58
2021/08/19 08:13:32;;;;;;;23.35;12.00;;;17.20;99.90;;;;;;4914131;29;20443;-58
2021/08/19 08:15:57;;;;;;;18.63;10.35;;;17.30;99.90;;;;;;4913483;29;20027;-59
2021/08/19 08:18:23;;;;;;;16.98;11.88;;;17.40;99.90;;;;;;4912791;29;20092;-61
2021/08/19 08:20:48;;;;;;;16.98;11.55;;;17.60;99.90;;;;;;4918404;29;20049;-59
2021/08/19 08:23:20;;;;;;;17.60;11.15;;;17.70;99.90;;;;;;4915546;29;20024;-59
2021/08/19 08:25:49;;;;;;;14.18;10.57;;;17.80;99.90;;;;;;4914307;29;20036;-58
2021/08/19 08:28:19;;;;;;;15.15;10.98;;;18.00;99.90;;;;;;4913378;29;20043;-59
2021/08/19 08:30:46;;;;;;;15.55;10.35;;;18.20;99.90;;;;;;4916770;29;20093;-60
2021/08/19 08:33:15;;;;;;;16.83;9.77;;;18.20;99.90;;;;;;4911813;29;20084;-60
2021/08/19 08:35:41;;;;;;;12.85;9.98;;;18.40;99.90;;;;;;4913361;29;20036;-57
2021/08/19 08:38:10;;;;;;;19.55;10.70;;;18.40;99.90;;;;;;4914631;29;20031;-58
2021/08/19 08:40:38;;;;;;;16.33;10.00;;;18.40;99.90;;;;;;4915698;29;20020;-51
2021/08/19 08:43:06;;;;;;;10.60;8.10;;;18.40;99.90;;;;;;4910193;29;20609;-59
2021/08/19 08:45:36;;;;;;;13.40;9.20;;;18.60;99.90;;;;;;4908395;29;20032;-58
2021/08/19 08:48:13;;;;;;;12.38;9.18;;;18.70;99.90;;;;;;4912996;29;20033;-59
2021/08/19 08:50:40;;;;;;;13.50;8.38;;;19.10;99.90;;;;;;4914498;29;20024;-53
2021/08/19 08:53:08;;;;;;;8.90;7.07;;;19.40;99.90;;;;;;4912799;29;20515;-60
2021/08/19 08:55:34;;;;;;;9.48;7.45;;;19.60;99.90;;;;;;4905768;29;20091;-57
2021/08/19 08:58:00;;;;;;;10.98;7.30;;;19.70;99.90;;;;;;4913104;29;20032;-58
2021/08/19 09:00:26;;;;;;;13.30;8.20;;;19.80;99.90;;;;;;4914299;29;20047;-58
2021/08/19 09:02:51;;;;;;;9.40;7.57;;;19.80;99.90;;;;;;4913536;29;20056;-59
2021/08/19 09:05:21;;;;;;;16.58;9.02;;;20.00;99.90;;;;;;4912295;29;20079;-58
2021/08/19 09:07:54;;;;;;;11.57;7.85;;;19.90;99.90;;;;;;4912538;29;20500;-57
2021/08/19 09:10:22;;;;;;;10.60;6.95;;;19.80;99.90;;;;;;4910700;29;20028;-60
2021/08/19 09:12:48;;;;;;;13.45;7.78;;;19.70;99.90;;;;;;4896256;29;20052;-57
2021/08/19 09:15:17;;;;;;;11.02;7.93;;;19.60;99.90;;;;;;4912797;29;20044;-58
2021/08/19 09:17:53;;;;;;;17.15;7.13;;;19.90;99.90;;;;;;4925390;29;20032;-55
2021/08/19 09:20:21;;;;;;;9.10;7.60;;;19.90;99.90;;;;;;4928783;29;20028;-51
2021/08/19 09:23:11;;;;;;;12.98;6.65;;;20.00;99.90;;;;;;4914950;29;20096;-58
2021/08/19 09:25:46;;;;;;;9.70;6.45;;;20.30;99.90;;;;;;4909124;29;20032;-52
2021/08/19 09:28:19;;;;;;;9.93;6.50;;;20.50;99.90;;;;;;4907921;29;20067;-53
2021/08/19 09:30:51;;;;;;;11.98;6.75;;;20.80;99.90;;;;;;4902193;28;20044;-58
2021/08/19 09:33:25;;;;;;;10.80;6.22;;;21.00;99.90;;;;;;4909292;29;20060;-60
2021/08/19 09:35:53;;;;;;;9.50;6.70;;;21.60;99.90;;;;;;4906310;29;20603;-61
2021/08/19 09:38:21;;;;;;;10.00;6.70;;;21.50;99.90;;;;;;4914394;29;20122;-60
2021/08/19 09:41:13;;;;;;;9.77;6.25;;;21.60;99.90;;;;;;4916284;29;20020;-60
2021/08/19 09:43:48;;;;;;;11.27;6.22;;;21.40;99.90;;;;;;4911975;29;20032;-62
2021/08/19 09:46:17;;;;;;;8.80;6.43;;;21.50;99.90;;;;;;4913516;29;20040;-60
2021/08/19 09:48:44;;;;;;;10.35;6.50;;;21.40;99.90;;;;;;4912269;29;20039;-59
2021/08/19 09:51:22;;;;;;;9.57;6.35;;;21.30;99.90;;;;;;4913217;29;20036;-59
2021/08/19 09:54:07;;;;;;;10.73;6.53;;;21.30;99.90;;;;;;4911164;29;20028;-59
2021/08/19 09:56:36;;;;;;;7.43;5.78;;;21.10;99.90;;;;;;4913583;29;20392;-59
2021/08/19 09:59:26;;;;;;;10.65;6.15;;;20.70;99.90;;;;;;4911254;29;20027;-59
2021/08/19 10:01:53;;;;;;;10.18;5.43;;;20.50;99.90;;;;;;4911988;29;20024;-58
2021/08/19 10:04:20;;;;;;;8.30;5.63;;;20.30;99.90;;;;;;4914906;29;20024;-58
2021/08/19 10:06:46;;;;;;;11.48;5.78;;;20.20;99.90;;;;;;4912064;29;20036;-58
2021/08/19 10:09:13;;;;;;;6.63;5.68;;;20.20;99.90;;;;;;4910764;29;20035;-58
2021/08/19 10:11:44;;;;;;;13.18;5.72;;;20.20;99.90;;;;;;4896847;29;20031;-56
2021/08/19 10:14:14;;;;;;;10.38;5.45;;;20.20;99.90;;;;;;4910669;29;20029;-59
2021/08/19 10:16:41;;;;;;;12.80;6.28;;;20.70;99.90;;;;;;4912337;29;20027;-54
2021/08/19 10:19:18;;;;;;;8.07;6.15;;;21.10;99.90;;;;;;4911430;29;20024;-56
2021/08/19 10:21:48;;;;;;;11.63;5.90;;;21.50;99.90;;;;;;4913386;29;20048;-55
2021/08/19 10:24:14;;;;;;;9.05;6.18;;;21.50;99.90;;;;;;4916853;29;20035;-59
2021/08/19 10:26:39;;;;;;;10.00;6.95;;;21.40;99.90;;;;;;4911046;29;20088;-56
2021/08/19 10:29:05;;;;;;;9.27;6.28;;;21.20;99.90;;;;;;4909528;29;20040;-58
2021/08/19 10:31:38;;;;;;;8.38;6.10;;;21.20;99.90;;;;;;4910860;29;20519;-59
2021/08/19 10:34:04;;;;;;;13.23;6.07;;;21.40;99.90;;;;;;4911508;29;20028;-60
2021/08/19 10:36:29;;;;;;;13.52;6.10;;;21.30;99.90;;;;;;4913568;29;20042;-58
2021/08/19 10:39:20;;;;;;;9.75;5.53;;;21.30;99.90;;;;;;4911826;29;20028;-58
2021/08/19 10:41:47;;;;;;;8.95;6.18;;;21.10;99.90;;;;;;4912040;29;20140;-56
2021/08/19 10:44:14;;;;;;;7.95;6.05;;;21.20;99.90;;;;;;4912795;29;20028;-58
2021/08/19 10:46:58;;;;;;;9.02;5.93;;;21.30;99.90;;;;;;4913957;29;20036;-50
2021/08/19 10:49:32;;;;;;;10.02;6.30;;;21.50;99.90;;;;;;4911879;29;20030;-59
2021/08/19 10:52:09;;;;;;;11.43;5.88;;;21.70;99.90;;;;;;4915314;29;20035;-56
2021/08/19 10:54:40;;;;;;;10.40;5.25;;;22.00;99.90;;;;;;4913348;29;20036;-59
2021/08/19 10:57:21;;;;;;;9.35;6.07;;;22.20;99.90;;;;;;4917422;29;20098;-60
2021/08/19 11:00:09;;;;;;;7.65;4.97;;;22.60;99.90;;;;;;4917215;29;20024;-57
2021/08/19 11:02:43;;;;;;;9.45;5.82;;;22.50;99.90;;;;;;4911634;29;20032;-59
2021/08/19 11:05:11;;;;;;;;;;;22.30;99.90;;;;;;4913807;29;20548;-60
2021/08/19 11:07:48;;;;;;;9.27;5.35;;;22.00;99.90;;;;;;4911950;29;20002;-55
2021/08/19 11:10:28;;;;;;;10.48;5.95;;;21.90;99.90;;;;;;4917638;29;20515;-58
2021/08/19 11:13:05;;;;;;;11.82;6.03;;;22.20;99.90;;;;;;4908699;29;20503;-59
2021/08/19 11:15:31;;;;;;;9.70;5.97;;;22.50;99.90;;;;;;4905713;29;20111;-59
2021/08/19 11:17:58;;;;;;;8.63;5.50;;;22.40;99.90;;;;;;4905780;29;20028;-54
2021/08/19 11:20:31;;;;;;;8.20;5.32;;;22.70;99.90;;;;;;4910493;29;20035;-56
2021/08/19 11:23:05;;;;;;;9.43;6.05;;;22.90;99.90;;;;;;4906868;29;20032;-55
2021/08/19 11:25:33;;;;;;;11.00;6.18;;;22.80;99.90;;;;;;4908234;29;20043;-59
2021/08/19 11:28:17;;;;;;;8.57;5.90;;;22.90;99.90;;;;;;4907865;29;20124;-58
2021/08/19 11:30:46;;;;;;;11.82;6.65;;;22.60;99.90;;;;;;4924138;29;20036;-59
2021/08/19 11:33:24;;;;;;;9.30;6.07;;;22.60;99.90;;;;;;4923083;29;20046;-59
2021/08/19 11:35:51;;;;;;;10.27;5.72;;;22.50;99.90;;;;;;4903321;29;20036;-60
2021/08/19 11:38:22;;;;;;;7.05;5.22;;;22.60;99.90;;;;;;4908035;29;20024;-60
2021/08/19 11:40:50;;;;;;;8.88;5.28;;;22.40;99.90;;;;;;4910676;29;20031;-60
2021/08/19 11:43:27;;;;;;;5.82;4.88;;;22.20;99.90;;;;;;4905000;29;20043;-53
2021/08/19 11:46:07;;;;;;;9.70;4.90;;;21.90;99.90;;;;;;4905307;29;20069;-59
2021/08/19 11:48:34;;;;;;;5.25;4.07;;;21.80;99.90;;;;;;4909366;29;20512;-61
2021/08/19 11:51:02;;;;;;;6.13;4.25;;;21.70;99.90;;;;;;4905472;29;20042;-61
2021/08/19 11:53:28;;;;;;;6.40;3.92;;;21.50;99.90;;;;;;4905218;29;20381;-60
2021/08/19 11:55:55;;;;;;;11.05;4.18;;;21.50;99.90;;;;;;4906498;29;20086;-61
2021/08/19 11:58:25;;;;;;;5.32;3.47;;;21.70;99.90;;;;;;4915559;29;20515;-60
2021/08/19 12:00:54;;;;;;;7.93;3.60;;;21.70;99.90;;;;;;4919352;29;20028;-59
2021/08/19 12:03:19;;;;;;;4.72;3.08;;;21.90;99.90;;;;;;4920077;29;20039;-60
2021/08/19 12:05:45;;;;;;;4.15;2.92;;;21.80;99.90;;;;;;4936312;29;20051;-59
2021/08/19 12:08:11;;;;;;;7.53;3.00;;;21.70;99.90;;;;;;4914370;29;20492;-60
2021/08/19 12:10:37;;;;;;;4.20;2.58;;;21.80;99.90;;;;;;4922553;29;20104;-59
2021/08/19 12:13:03;;;;;;;2.58;1.92;;;21.80;99.90;;;;;;4919401;28;20103;-59
2021/08/19 12:15:29;;;;;;;3.95;2.30;;;21.90;99.90;;;;;;4915410;29;20036;-58
2021/08/19 12:18:07;;;;;;;4.93;1.70;;;22.00;99.90;;;;;;4917376;29;20035;-59
2021/08/19 12:20:32;;;;;;;2.20;1.50;;;22.30;99.90;;;;;;4924773;29;20036;-59
2021/08/19 12:23:21;;;;;;;1.98;1.40;;;22.10;99.90;;;;;;4912667;29;20031;-57
2021/08/19 12:25:47;;;;;;;4.28;2.20;;;21.80;99.90;;;;;;4922801;29;20056;-57
2021/08/19 12:28:13;;;;;;;4.93;2.75;;;21.80;99.90;;;;;;4913263;29;20084;-59
2021/08/19 12:30:56;;;;;;;5.13;2.63;;;21.80;99.90;;;;;;4914729;29;20123;-51
2021/08/19 12:33:37;;;;;;;4.40;2.70;;;21.80;99.90;;;;;;4916376;29;20024;-59
2021/08/19 12:36:09;;;;;;;5.60;2.85;;;21.80;99.90;;;;;;4913980;29;20044;-59